CSN309 YPDN-ZSAM
Flight info
| Callsign | CSN309 |
|---|---|
| Flight time | 5h 40m |
| Altitude | 34000 |
| Route | OCTOB A461 AMN R590 DULON/N0453F360 R590 COT B472 IOO W3 LUBAN/N0452F380 W3 AKOTA A583 SABNO/N0448F370 DCT DOTMI/K0822S1130 A470 XLN/K0837S1160 W123 APAKA APAKA8X |
| Aircraft | A320/M-SDE3FGHIRWY/LB1 |
Departure
| Time | 2026-05-05 04:14 |
|---|---|
| Airport | Darwin International Airport / RAAF Darwin (YPDN) |
Arrival
| Time | 2026-05-05 09:55 |
|---|---|
| Airport | Xiamen Gaoqi International Airport (ZSAM) |
| Time | Latitude | Longitude | Altitude | Speed | Heading |
|---|---|---|---|---|---|
| 2026-05-05 03:38 | -12.40900 | 130.87789 | 128 ft | 0 kts | 19° |
| 2026-05-05 04:05 | -12.40911 | 130.87785 | 127 ft | 4 kts | 15° |
| 2026-05-05 04:05 | -12.40937 | 130.87780 | 125 ft | 4 kts | 0° |
| 2026-05-05 04:05 | -12.40963 | 130.87784 | 123 ft | 4 kts | 324° |
| 2026-05-05 04:06 | -12.40974 | 130.87797 | 123 ft | 0 kts | 280° |
| 2026-05-05 04:08 | -12.40971 | 130.87780 | 144 ft | 6 kts | 281° |
| 2026-05-05 04:09 | -12.40959 | 130.87712 | 127 ft | 13 kts | 280° |
| 2026-05-05 04:09 | -12.40980 | 130.87625 | 127 ft | 13 kts | 232° |
| 2026-05-05 04:09 | -12.41063 | 130.87580 | 127 ft | 14 kts | 198° |
| 2026-05-05 04:09 | -12.41160 | 130.87546 | 125 ft | 15 kts | 199° |
| 2026-05-05 04:10 | -12.41260 | 130.87511 | 127 ft | 16 kts | 199° |
| 2026-05-05 04:10 | -12.41367 | 130.87473 | 127 ft | 17 kts | 199° |
| 2026-05-05 04:10 | -12.41474 | 130.87415 | 126 ft | 18 kts | 232° |
| 2026-05-05 04:10 | -12.41481 | 130.87291 | 124 ft | 19 kts | 289° |
| 2026-05-05 04:11 | -12.41452 | 130.87206 | 124 ft | 19 kts | 289° |
| 2026-05-05 04:11 | -12.41408 | 130.87073 | 126 ft | 20 kts | 290° |
| 2026-05-05 04:11 | -12.41360 | 130.86933 | 126 ft | 21 kts | 289° |
| 2026-05-05 04:11 | -12.41311 | 130.86786 | 126 ft | 22 kts | 289° |
| 2026-05-05 04:12 | -12.41259 | 130.86632 | 127 ft | 23 kts | 289° |
| 2026-05-05 04:12 | -12.41188 | 130.86498 | 125 ft | 20 kts | 327° |
| 2026-05-05 04:12 | -12.41060 | 130.86495 | 126 ft | 19 kts | 19° |
| 2026-05-05 04:12 | -12.40962 | 130.86531 | 128 ft | 8 kts | 20° |
| 2026-05-05 04:13 | -12.40956 | 130.86582 | 127 ft | 9 kts | 110° |
| 2026-05-05 04:13 | -12.40975 | 130.86637 | 127 ft | 15 kts | 109° |
| 2026-05-05 04:13 | -12.41085 | 130.86964 | 125 ft | 80 kts | 109° |
| 2026-05-05 04:13 | -12.41324 | 130.87673 | 127 ft | 128 kts | 109° |
| 2026-05-05 04:14 | -12.41659 | 130.88666 | 133 ft | 166 kts | 108° |
| 2026-05-05 04:14 | -12.42049 | 130.89808 | 631 ft | 168 kts | 108° |
| 2026-05-05 04:14 | -12.42427 | 130.90937 | 1222 ft | 169 kts | 107° |
| 2026-05-05 04:14 | -12.42803 | 130.92092 | 1634 ft | 173 kts | 107° |
| 2026-05-05 04:15 | -12.43194 | 130.93307 | 1873 ft | 190 kts | 108° |
| 2026-05-05 04:15 | -12.43635 | 130.94657 | 2071 ft | 210 kts | 108° |
| 2026-05-05 04:15 | -12.44134 | 130.96146 | 2275 ft | 233 kts | 109° |
| 2026-05-05 04:15 | -12.44682 | 130.97760 | 2655 ft | 251 kts | 108° |
| 2026-05-05 04:16 | -12.45080 | 130.99531 | 3331 ft | 255 kts | 91° |
| 2026-05-05 04:16 | -12.44796 | 131.01304 | 4078 ft | 259 kts | 69° |
| 2026-05-05 04:16 | -12.43819 | 131.02849 | 4933 ft | 262 kts | 47° |
| 2026-05-05 04:16 | -12.42293 | 131.03894 | 5696 ft | 271 kts | 24° |
| 2026-05-05 04:17 | -12.40400 | 131.04218 | 6358 ft | 283 kts | 2° |
| 2026-05-05 04:17 | -12.38421 | 131.04175 | 7036 ft | 286 kts | 1° |
| 2026-05-05 04:17 | -12.36417 | 131.04122 | 7701 ft | 289 kts | 1° |
| 2026-05-05 04:17 | -12.34395 | 131.04067 | 8361 ft | 293 kts | 359° |
| 2026-05-05 04:18 | -12.32377 | 131.03704 | 9000 ft | 299 kts | 342° |
| 2026-05-05 04:18 | -12.30502 | 131.02759 | 9618 ft | 303 kts | 325° |
| 2026-05-05 04:18 | -12.28944 | 131.01305 | 10245 ft | 305 kts | 309° |
| 2026-05-05 04:18 | -12.27803 | 130.99488 | 10892 ft | 304 kts | 294° |
| 2026-05-05 04:19 | -12.27051 | 130.97444 | 11250 ft | 316 kts | 289° |
| 2026-05-05 04:19 | -12.26316 | 130.95255 | 11374 ft | 335 kts | 288° |
| 2026-05-05 04:19 | -12.25545 | 130.92945 | 11561 ft | 350 kts | 289° |
| 2026-05-05 04:19 | -12.24752 | 130.90569 | 12021 ft | 354 kts | 289° |
| 2026-05-05 04:20 | -12.23919 | 130.88197 | 12559 ft | 356 kts | 294° |
| 2026-05-05 04:20 | -12.22655 | 130.86025 | 13081 ft | 358 kts | 308° |
| 2026-05-05 04:20 | -12.20879 | 130.84239 | 13597 ft | 360 kts | 323° |
| 2026-05-05 04:20 | -12.18700 | 130.82965 | 14064 ft | 363 kts | 337° |
| 2026-05-05 04:21 | -12.16290 | 130.82151 | 14505 ft | 366 kts | 341° |
| 2026-05-05 04:21 | -12.13846 | 130.81370 | 14944 ft | 369 kts | 341° |
| 2026-05-05 04:21 | -12.11388 | 130.80584 | 15374 ft | 372 kts | 341° |
| 2026-05-05 04:21 | -12.08913 | 130.79786 | 15795 ft | 374 kts | 341° |
| 2026-05-05 04:22 | -12.06423 | 130.78979 | 16218 ft | 377 kts | 341° |
| 2026-05-05 04:22 | -12.03918 | 130.78166 | 16631 ft | 379 kts | 341° |
| 2026-05-05 04:22 | -12.01392 | 130.77348 | 17048 ft | 382 kts | 340° |
| 2026-05-05 04:22 | -11.99719 | 130.76806 | 17314 ft | 384 kts | 340° |
| 2026-05-05 04:23 | -11.98670 | 130.76467 | 17491 ft | 385 kts | 340° |
| 2026-05-05 04:23 | -11.96140 | 130.75648 | 17893 ft | 388 kts | 340° |
| 2026-05-05 04:23 | -11.93558 | 130.74813 | 18283 ft | 390 kts | 340° |
| 2026-05-05 04:23 | -11.91223 | 130.74059 | 18584 ft | 393 kts | 340° |
| 2026-05-05 04:24 | -11.89639 | 130.73547 | 18805 ft | 394 kts | 340° |
| 2026-05-05 04:24 | -11.87019 | 130.72698 | 19145 ft | 397 kts | 340° |
| 2026-05-05 04:24 | -11.84376 | 130.71842 | 19484 ft | 399 kts | 340° |
| 2026-05-05 04:25 | -11.79049 | 130.70124 | 20168 ft | 404 kts | 340° |
| 2026-05-05 04:25 | -11.76362 | 130.69255 | 20511 ft | 406 kts | 340° |
| 2026-05-05 04:25 | -11.73658 | 130.68379 | 20865 ft | 408 kts | 340° |
| 2026-05-05 04:25 | -11.70940 | 130.67503 | 21199 ft | 411 kts | 340° |
| 2026-05-05 04:26 | -11.68213 | 130.66625 | 21523 ft | 413 kts | 340° |
| 2026-05-05 04:26 | -11.65463 | 130.65738 | 21836 ft | 415 kts | 340° |
| 2026-05-05 04:26 | -11.62701 | 130.64846 | 22136 ft | 418 kts | 340° |
| 2026-05-05 04:26 | -11.59921 | 130.63949 | 22437 ft | 420 kts | 340° |
| 2026-05-05 04:27 | -11.57131 | 130.63049 | 22740 ft | 422 kts | 340° |
| 2026-05-05 04:27 | -11.54323 | 130.62143 | 23026 ft | 424 kts | 339° |
| 2026-05-05 04:27 | -11.51502 | 130.61233 | 23305 ft | 427 kts | 339° |
| 2026-05-05 04:27 | -11.48698 | 130.60329 | 23561 ft | 429 kts | 339° |
| 2026-05-05 04:28 | -11.45848 | 130.59411 | 23812 ft | 431 kts | 339° |
| 2026-05-05 04:28 | -11.42988 | 130.58489 | 24064 ft | 432 kts | 339° |
| 2026-05-05 04:28 | -11.40110 | 130.57561 | 24299 ft | 434 kts | 339° |
| 2026-05-05 04:28 | -11.37226 | 130.56634 | 24542 ft | 435 kts | 340° |
| 2026-05-05 04:29 | -11.34326 | 130.55706 | 24790 ft | 437 kts | 340° |
| 2026-05-05 04:29 | -11.31423 | 130.54777 | 25030 ft | 438 kts | 340° |
| 2026-05-05 04:29 | -11.28513 | 130.53840 | 25265 ft | 440 kts | 339° |
| 2026-05-05 04:29 | -11.25589 | 130.52894 | 25497 ft | 441 kts | 339° |
| 2026-05-05 04:30 | -11.22654 | 130.51947 | 25730 ft | 443 kts | 339° |
| 2026-05-05 04:30 | -11.19713 | 130.50996 | 25965 ft | 444 kts | 339° |
| 2026-05-05 04:30 | -11.16758 | 130.50040 | 26189 ft | 446 kts | 339° |
| 2026-05-05 04:30 | -11.13795 | 130.49083 | 26419 ft | 447 kts | 339° |
| 2026-05-05 04:31 | -11.10821 | 130.48122 | 26645 ft | 449 kts | 339° |
| 2026-05-05 04:31 | -11.07839 | 130.47163 | 26868 ft | 450 kts | 340° |
| 2026-05-05 04:31 | -11.04843 | 130.46205 | 27092 ft | 452 kts | 340° |
| 2026-05-05 04:31 | -11.01839 | 130.45243 | 27310 ft | 453 kts | 340° |
| 2026-05-05 04:32 | -10.98825 | 130.44275 | 27532 ft | 455 kts | 340° |
| 2026-05-05 04:32 | -10.95799 | 130.43308 | 27754 ft | 457 kts | 340° |
| 2026-05-05 04:32 | -10.92763 | 130.42339 | 28022 ft | 457 kts | 340° |
| 2026-05-05 04:32 | -10.89738 | 130.41368 | 28355 ft | 456 kts | 339° |
| 2026-05-05 04:33 | -10.86715 | 130.40397 | 28690 ft | 455 kts | 339° |
| 2026-05-05 04:33 | -10.83695 | 130.39428 | 29015 ft | 455 kts | 339° |
| 2026-05-05 04:33 | -10.80686 | 130.38463 | 29352 ft | 454 kts | 339° |
| 2026-05-05 04:33 | -10.77673 | 130.37497 | 29692 ft | 453 kts | 339° |
| 2026-05-05 04:34 | -10.74664 | 130.36532 | 30021 ft | 453 kts | 339° |
| 2026-05-05 04:34 | -10.71661 | 130.35566 | 30318 ft | 452 kts | 340° |
| 2026-05-05 04:34 | -10.68667 | 130.34603 | 30622 ft | 451 kts | 340° |
| 2026-05-05 04:34 | -10.65671 | 130.33645 | 30940 ft | 450 kts | 340° |
| 2026-05-05 04:35 | -10.62690 | 130.32694 | 31264 ft | 449 kts | 340° |
| 2026-05-05 04:35 | -10.59716 | 130.31744 | 31588 ft | 448 kts | 340° |
| 2026-05-05 04:35 | -10.56748 | 130.30796 | 31919 ft | 446 kts | 340° |
| 2026-05-05 04:35 | -10.53790 | 130.29850 | 32240 ft | 445 kts | 340° |
| 2026-05-05 04:36 | -10.50842 | 130.28907 | 32595 ft | 444 kts | 340° |
| 2026-05-05 04:36 | -10.47900 | 130.27964 | 32923 ft | 442 kts | 340° |
| 2026-05-05 04:36 | -10.44967 | 130.27022 | 33258 ft | 441 kts | 340° |
| 2026-05-05 04:36 | -10.42043 | 130.26084 | 33577 ft | 440 kts | 340° |
| 2026-05-05 04:37 | -10.39127 | 130.25148 | 33844 ft | 440 kts | 340° |
| 2026-05-05 04:37 | -10.33233 | 130.23265 | 33902 ft | 450 kts | 340° |
| 2026-05-05 04:38 | -10.27210 | 130.21338 | 33904 ft | 455 kts | 340° |
| 2026-05-05 04:38 | -10.21169 | 130.19412 | 33900 ft | 456 kts | 340° |
| 2026-05-05 04:39 | -10.15113 | 130.17473 | 33898 ft | 456 kts | 340° |
| 2026-05-05 04:39 | -10.09099 | 130.15554 | 33898 ft | 456 kts | 340° |
| 2026-05-05 04:40 | -10.03050 | 130.13624 | 33896 ft | 456 kts | 340° |
| 2026-05-05 04:40 | -9.96983 | 130.11691 | 33898 ft | 456 kts | 340° |
| 2026-05-05 04:41 | -9.90925 | 130.09762 | 33900 ft | 457 kts | 340° |
| 2026-05-05 04:41 | -9.84865 | 130.07828 | 33895 ft | 457 kts | 340° |
| 2026-05-05 04:42 | -9.78803 | 130.05885 | 33904 ft | 457 kts | 340° |
| 2026-05-05 04:42 | -9.72728 | 130.03950 | 33906 ft | 457 kts | 340° |
| 2026-05-05 04:43 | -9.66655 | 130.02026 | 33908 ft | 457 kts | 340° |
| 2026-05-05 04:43 | -9.60583 | 130.00095 | 33906 ft | 457 kts | 340° |
| 2026-05-05 04:44 | -9.54512 | 129.98159 | 33908 ft | 457 kts | 340° |
| 2026-05-05 04:44 | -9.48441 | 129.96234 | 33910 ft | 457 kts | 340° |
| 2026-05-05 04:45 | -9.42368 | 129.94307 | 33903 ft | 457 kts | 340° |
| 2026-05-05 04:45 | -9.36297 | 129.92372 | 33904 ft | 458 kts | 340° |
| 2026-05-05 04:46 | -9.30219 | 129.90443 | 33903 ft | 457 kts | 340° |
| 2026-05-05 04:46 | -9.24147 | 129.88513 | 33901 ft | 457 kts | 340° |
| 2026-05-05 04:47 | -9.18073 | 129.86584 | 33900 ft | 457 kts | 340° |
| 2026-05-05 04:47 | -9.12000 | 129.84661 | 33900 ft | 457 kts | 340° |
| 2026-05-05 04:48 | -9.05924 | 129.82735 | 33900 ft | 458 kts | 340° |
| 2026-05-05 04:48 | -8.99888 | 129.80820 | 33899 ft | 457 kts | 340° |
| 2026-05-05 04:49 | -8.93819 | 129.78897 | 33900 ft | 457 kts | 340° |
| 2026-05-05 04:49 | -8.87753 | 129.76977 | 33894 ft | 457 kts | 341° |
| 2026-05-05 04:50 | -8.81676 | 129.75058 | 33893 ft | 457 kts | 341° |
| 2026-05-05 04:50 | -8.75603 | 129.73138 | 33888 ft | 457 kts | 341° |
| 2026-05-05 04:51 | -8.69526 | 129.71207 | 33884 ft | 458 kts | 342° |
| 2026-05-05 04:51 | -8.63433 | 129.69274 | 33876 ft | 460 kts | 342° |
| 2026-05-05 04:52 | -8.57317 | 129.67344 | 33878 ft | 461 kts | 342° |
| 2026-05-05 04:52 | -8.51234 | 129.65443 | 33874 ft | 461 kts | 342° |
| 2026-05-05 04:53 | -8.45085 | 129.63582 | 33875 ft | 461 kts | 342° |
| 2026-05-05 04:53 | -8.38934 | 129.61732 | 33871 ft | 461 kts | 343° |
| 2026-05-05 04:54 | -8.32777 | 129.59883 | 33873 ft | 461 kts | 342° |
| 2026-05-05 04:54 | -8.26628 | 129.58016 | 33875 ft | 462 kts | 342° |
| 2026-05-05 04:55 | -8.20472 | 129.56144 | 33879 ft | 462 kts | 342° |
| 2026-05-05 04:55 | -8.14312 | 129.54285 | 33878 ft | 462 kts | 342° |
| 2026-05-05 04:56 | -8.08148 | 129.52417 | 33881 ft | 462 kts | 342° |
| 2026-05-05 04:56 | -8.01990 | 129.50549 | 33880 ft | 462 kts | 342° |
| 2026-05-05 04:57 | -7.95833 | 129.48688 | 33874 ft | 462 kts | 342° |
| 2026-05-05 04:57 | -7.90716 | 129.47148 | 33873 ft | 462 kts | 343° |
| 2026-05-05 04:58 | -7.84553 | 129.45298 | 33870 ft | 462 kts | 342° |
| 2026-05-05 04:58 | -7.78393 | 129.43436 | 33868 ft | 462 kts | 342° |
| 2026-05-05 04:59 | -7.72227 | 129.41562 | 33872 ft | 463 kts | 342° |
| 2026-05-05 04:59 | -7.66061 | 129.39701 | 33875 ft | 463 kts | 342° |
| 2026-05-05 05:00 | -7.59889 | 129.37845 | 33876 ft | 463 kts | 343° |
| 2026-05-05 05:00 | -7.53721 | 129.35988 | 33878 ft | 463 kts | 342° |
| 2026-05-05 05:01 | -7.47552 | 129.34120 | 33877 ft | 462 kts | 342° |
| 2026-05-05 05:01 | -7.41393 | 129.32254 | 33879 ft | 462 kts | 342° |
| 2026-05-05 05:02 | -7.35233 | 129.30403 | 33879 ft | 462 kts | 342° |
| 2026-05-05 05:02 | -7.29105 | 129.28562 | 33878 ft | 462 kts | 342° |
| 2026-05-05 05:03 | -7.22949 | 129.26706 | 33876 ft | 462 kts | 342° |
| 2026-05-05 05:03 | -7.16795 | 129.24855 | 33881 ft | 462 kts | 342° |
| 2026-05-05 05:04 | -7.10642 | 129.23001 | 33883 ft | 462 kts | 343° |
| 2026-05-05 05:04 | -7.04488 | 129.21149 | 33881 ft | 461 kts | 343° |
| 2026-05-05 05:05 | -6.98334 | 129.19305 | 33880 ft | 461 kts | 343° |
| 2026-05-05 05:05 | -6.92183 | 129.17462 | 33874 ft | 461 kts | 343° |
| 2026-05-05 05:06 | -6.86032 | 129.15602 | 33876 ft | 461 kts | 343° |
| 2026-05-05 05:06 | -6.79887 | 129.13748 | 33876 ft | 461 kts | 343° |
| 2026-05-05 05:07 | -6.73734 | 129.11901 | 33878 ft | 462 kts | 343° |
| 2026-05-05 05:07 | -6.67576 | 129.10053 | 33875 ft | 462 kts | 343° |
| 2026-05-05 05:08 | -6.61418 | 129.08200 | 33873 ft | 462 kts | 343° |
| 2026-05-05 05:08 | -6.55260 | 129.06352 | 33871 ft | 462 kts | 343° |
| 2026-05-05 05:09 | -6.49092 | 129.04503 | 33867 ft | 462 kts | 343° |
| 2026-05-05 05:09 | -6.42928 | 129.02653 | 33867 ft | 462 kts | 343° |
| 2026-05-05 05:10 | -6.36806 | 129.00816 | 33864 ft | 463 kts | 343° |
| 2026-05-05 05:10 | -6.30635 | 128.98962 | 33861 ft | 463 kts | 343° |
| 2026-05-05 05:11 | -6.24467 | 128.97108 | 33859 ft | 463 kts | 343° |
| 2026-05-05 05:11 | -6.18289 | 128.95259 | 33858 ft | 463 kts | 343° |
| 2026-05-05 05:12 | -6.12109 | 128.93413 | 33862 ft | 463 kts | 343° |
| 2026-05-05 05:12 | -6.05930 | 128.91566 | 33862 ft | 463 kts | 343° |
| 2026-05-05 05:13 | -5.99754 | 128.89709 | 33865 ft | 463 kts | 344° |
| 2026-05-05 05:13 | -5.93580 | 128.87854 | 33865 ft | 463 kts | 344° |
| 2026-05-05 05:14 | -5.87411 | 128.86004 | 33867 ft | 463 kts | 344° |
| 2026-05-05 05:14 | -5.81243 | 128.84165 | 33870 ft | 462 kts | 344° |
| 2026-05-05 05:15 | -5.75077 | 128.82321 | 33864 ft | 462 kts | 344° |
| 2026-05-05 05:15 | -5.68910 | 128.80474 | 33862 ft | 462 kts | 344° |
| 2026-05-05 05:16 | -5.62786 | 128.78644 | 33862 ft | 462 kts | 344° |
| 2026-05-05 05:16 | -5.56626 | 128.76801 | 33857 ft | 462 kts | 344° |
| 2026-05-05 05:17 | -5.50454 | 128.74947 | 33858 ft | 462 kts | 344° |
| 2026-05-05 05:17 | -5.44290 | 128.73104 | 33855 ft | 462 kts | 344° |
| 2026-05-05 05:18 | -5.38124 | 128.71262 | 33855 ft | 463 kts | 344° |
| 2026-05-05 05:18 | -5.31948 | 128.69421 | 33855 ft | 463 kts | 344° |
| 2026-05-05 05:19 | -5.25769 | 128.67576 | 33849 ft | 464 kts | 344° |
| 2026-05-05 05:19 | -5.19586 | 128.65725 | 33853 ft | 464 kts | 344° |
| 2026-05-05 05:20 | -5.13398 | 128.63874 | 33853 ft | 464 kts | 344° |
| 2026-05-05 05:20 | -5.07202 | 128.62025 | 33858 ft | 465 kts | 344° |
| 2026-05-05 05:21 | -5.00996 | 128.60173 | 33857 ft | 465 kts | 344° |
| 2026-05-05 05:21 | -4.94801 | 128.58317 | 33855 ft | 465 kts | 344° |
| 2026-05-05 05:22 | -4.88594 | 128.56466 | 33859 ft | 465 kts | 344° |
| 2026-05-05 05:22 | -4.82386 | 128.54627 | 33862 ft | 465 kts | 344° |
| 2026-05-05 05:23 | -4.76181 | 128.52774 | 33860 ft | 466 kts | 344° |
| 2026-05-05 05:23 | -4.70009 | 128.50924 | 33865 ft | 466 kts | 344° |
| 2026-05-05 05:24 | -4.63802 | 128.49065 | 33869 ft | 466 kts | 344° |
| 2026-05-05 05:24 | -4.57585 | 128.47214 | 33859 ft | 466 kts | 344° |
| 2026-05-05 05:25 | -4.51365 | 128.45372 | 33861 ft | 466 kts | 344° |
| 2026-05-05 05:25 | -4.45149 | 128.43514 | 33863 ft | 466 kts | 344° |
| 2026-05-05 05:26 | -4.38933 | 128.41651 | 33862 ft | 466 kts | 344° |
| 2026-05-05 05:26 | -4.32714 | 128.39804 | 33859 ft | 466 kts | 344° |
| 2026-05-05 05:27 | -4.26494 | 128.37958 | 33859 ft | 466 kts | 344° |
| 2026-05-05 05:27 | -4.17152 | 128.35180 | 33864 ft | 467 kts | 344° |
| 2026-05-05 05:28 | -4.10925 | 128.33326 | 33866 ft | 467 kts | 344° |
| 2026-05-05 05:28 | -4.04700 | 128.31467 | 33865 ft | 467 kts | 344° |
| 2026-05-05 05:29 | -3.98470 | 128.29609 | 33860 ft | 467 kts | 344° |
| 2026-05-05 05:29 | -3.92239 | 128.27754 | 33858 ft | 467 kts | 344° |
| 2026-05-05 05:30 | -3.86045 | 128.25913 | 33853 ft | 467 kts | 344° |
| 2026-05-05 05:30 | -3.79811 | 128.24056 | 33852 ft | 467 kts | 344° |
| 2026-05-05 05:31 | -3.73580 | 128.22204 | 33852 ft | 467 kts | 344° |
| 2026-05-05 05:31 | -3.67352 | 128.20358 | 33850 ft | 467 kts | 344° |
| 2026-05-05 05:32 | -3.61123 | 128.18494 | 33848 ft | 467 kts | 342° |
| 2026-05-05 05:32 | -3.55009 | 128.16300 | 33850 ft | 467 kts | 339° |
| 2026-05-05 05:33 | -3.49000 | 128.13839 | 33848 ft | 467 kts | 338° |
| 2026-05-05 05:33 | -3.42983 | 128.11391 | 33848 ft | 466 kts | 339° |
| 2026-05-05 05:34 | -3.36937 | 128.09037 | 33854 ft | 466 kts | 339° |
| 2026-05-05 05:34 | -3.30921 | 128.06735 | 33857 ft | 466 kts | 339° |
| 2026-05-05 05:35 | -3.24882 | 128.04400 | 33859 ft | 465 kts | 339° |
| 2026-05-05 05:35 | -3.18846 | 128.02052 | 33854 ft | 465 kts | 339° |
| 2026-05-05 05:36 | -3.12820 | 127.99707 | 33860 ft | 465 kts | 339° |
| 2026-05-05 05:36 | -3.06791 | 127.97369 | 33860 ft | 464 kts | 339° |
| 2026-05-05 05:37 | -3.00767 | 127.95035 | 33863 ft | 464 kts | 339° |
| 2026-05-05 05:37 | -2.94741 | 127.92695 | 33865 ft | 464 kts | 339° |
| 2026-05-05 05:38 | -2.88718 | 127.90356 | 33862 ft | 464 kts | 339° |
| 2026-05-05 05:38 | -2.82696 | 127.88022 | 33861 ft | 464 kts | 339° |
| 2026-05-05 05:39 | -2.76678 | 127.85694 | 33860 ft | 464 kts | 339° |
| 2026-05-05 05:39 | -2.70662 | 127.83365 | 33862 ft | 463 kts | 339° |
| 2026-05-05 05:40 | -2.64658 | 127.81037 | 33859 ft | 463 kts | 339° |
| 2026-05-05 05:40 | -2.58657 | 127.78712 | 33859 ft | 462 kts | 339° |
| 2026-05-05 05:41 | -2.52664 | 127.76383 | 33857 ft | 462 kts | 339° |
| 2026-05-05 05:41 | -2.46665 | 127.74053 | 33851 ft | 462 kts | 339° |
| 2026-05-05 05:42 | -2.40670 | 127.71732 | 33850 ft | 462 kts | 339° |
| 2026-05-05 05:42 | -2.34708 | 127.69423 | 33847 ft | 463 kts | 339° |
| 2026-05-05 05:43 | -2.28709 | 127.67093 | 33846 ft | 463 kts | 339° |
| 2026-05-05 05:43 | -2.22702 | 127.64770 | 33845 ft | 463 kts | 339° |
| 2026-05-05 05:44 | -2.16684 | 127.62440 | 33845 ft | 463 kts | 339° |
| 2026-05-05 05:44 | -2.10675 | 127.60107 | 33844 ft | 464 kts | 339° |
| 2026-05-05 05:45 | -2.04657 | 127.57774 | 33850 ft | 464 kts | 339° |
| 2026-05-05 05:45 | -1.98630 | 127.55440 | 33849 ft | 464 kts | 339° |
| 2026-05-05 05:46 | -1.93622 | 127.53502 | 33855 ft | 464 kts | 339° |
| 2026-05-05 05:46 | -1.87600 | 127.51163 | 33853 ft | 465 kts | 339° |
| 2026-05-05 05:47 | -1.81567 | 127.48831 | 33857 ft | 465 kts | 339° |
| 2026-05-05 05:47 | -1.75486 | 127.46484 | 34071 ft | 469 kts | 339° |
| 2026-05-05 05:48 | -1.72446 | 127.45310 | 34337 ft | 469 kts | 339° |
| 2026-05-05 05:48 | -1.69404 | 127.44132 | 34605 ft | 468 kts | 339° |
| 2026-05-05 05:48 | -1.66366 | 127.42951 | 34854 ft | 468 kts | 339° |
| 2026-05-05 05:48 | -1.63332 | 127.41771 | 35114 ft | 467 kts | 339° |
| 2026-05-05 05:49 | -1.60302 | 127.40596 | 35382 ft | 467 kts | 339° |
| 2026-05-05 05:49 | -1.57271 | 127.39423 | 35635 ft | 466 kts | 339° |
| 2026-05-05 05:49 | -1.54285 | 127.38269 | 35812 ft | 467 kts | 339° |
| 2026-05-05 05:49 | -1.51254 | 127.37097 | 35848 ft | 466 kts | 339° |
| 2026-05-05 05:50 | -1.45213 | 127.34754 | 35847 ft | 466 kts | 339° |
| 2026-05-05 05:50 | -1.39158 | 127.32414 | 35843 ft | 466 kts | 339° |
| 2026-05-05 05:51 | -1.33114 | 127.30081 | 35845 ft | 466 kts | 339° |
| 2026-05-05 05:51 | -1.27065 | 127.27744 | 35846 ft | 466 kts | 339° |
| 2026-05-05 05:52 | -1.21016 | 127.25402 | 35850 ft | 466 kts | 339° |
| 2026-05-05 05:52 | -1.14971 | 127.23058 | 35847 ft | 466 kts | 339° |
| 2026-05-05 05:53 | -1.08916 | 127.20710 | 35846 ft | 467 kts | 339° |
| 2026-05-05 05:53 | -1.02862 | 127.18364 | 35843 ft | 467 kts | 339° |
| 2026-05-05 05:54 | -0.96799 | 127.16017 | 35845 ft | 467 kts | 339° |
| 2026-05-05 05:54 | -0.90735 | 127.13679 | 35851 ft | 467 kts | 339° |
| 2026-05-05 05:55 | -0.84708 | 127.11345 | 35850 ft | 468 kts | 339° |
| 2026-05-05 05:55 | -0.78643 | 127.08993 | 35849 ft | 468 kts | 339° |
| 2026-05-05 05:56 | -0.72556 | 127.06638 | 35843 ft | 468 kts | 339° |
| 2026-05-05 05:56 | -0.66475 | 127.04286 | 35842 ft | 469 kts | 339° |
| 2026-05-05 05:57 | -0.60380 | 127.01931 | 35839 ft | 469 kts | 339° |
| 2026-05-05 05:57 | -0.54286 | 126.99580 | 35843 ft | 470 kts | 339° |
| 2026-05-05 05:58 | -0.48187 | 126.97218 | 35844 ft | 470 kts | 339° |
| 2026-05-05 05:58 | -0.42092 | 126.94853 | 35840 ft | 470 kts | 339° |
| 2026-05-05 05:59 | -0.35989 | 126.92497 | 35847 ft | 470 kts | 339° |
| 2026-05-05 05:59 | -0.29885 | 126.90133 | 35849 ft | 470 kts | 339° |
| 2026-05-05 06:00 | -0.23785 | 126.87769 | 35846 ft | 471 kts | 339° |
| 2026-05-05 06:00 | -0.17668 | 126.85412 | 35842 ft | 471 kts | 339° |
| 2026-05-05 06:01 | -0.11555 | 126.83055 | 35840 ft | 471 kts | 339° |
| 2026-05-05 06:01 | -0.05445 | 126.80683 | 35850 ft | 471 kts | 339° |
| 2026-05-05 06:02 | 0.00666 | 126.78315 | 35851 ft | 471 kts | 339° |
| 2026-05-05 06:02 | 0.06781 | 126.75944 | 35843 ft | 471 kts | 339° |
| 2026-05-05 06:03 | 0.12853 | 126.73595 | 35844 ft | 471 kts | 339° |
| 2026-05-05 06:03 | 0.18963 | 126.71236 | 35849 ft | 470 kts | 339° |
| 2026-05-05 06:04 | 0.25064 | 126.68882 | 35850 ft | 470 kts | 339° |
| 2026-05-05 06:04 | 0.31160 | 126.66526 | 35848 ft | 470 kts | 339° |
| 2026-05-05 06:05 | 0.37251 | 126.64166 | 35852 ft | 469 kts | 339° |
| 2026-05-05 06:05 | 0.43335 | 126.61808 | 35850 ft | 469 kts | 339° |
| 2026-05-05 06:06 | 0.49417 | 126.59443 | 35848 ft | 469 kts | 339° |
| 2026-05-05 06:06 | 0.55500 | 126.57096 | 35844 ft | 469 kts | 339° |
| 2026-05-05 06:07 | 0.61589 | 126.54746 | 35841 ft | 469 kts | 339° |
| 2026-05-05 06:07 | 0.67674 | 126.52391 | 35845 ft | 469 kts | 339° |
| 2026-05-05 06:08 | 0.73766 | 126.50038 | 35838 ft | 469 kts | 339° |
| 2026-05-05 06:08 | 0.79855 | 126.47685 | 35844 ft | 469 kts | 339° |
| 2026-05-05 06:09 | 0.85942 | 126.45325 | 35840 ft | 469 kts | 339° |
| 2026-05-05 06:09 | 0.91991 | 126.42984 | 35847 ft | 469 kts | 339° |
| 2026-05-05 06:10 | 0.98087 | 126.40627 | 35843 ft | 470 kts | 339° |
| 2026-05-05 06:10 | 1.04177 | 126.38265 | 35844 ft | 470 kts | 339° |
| 2026-05-05 06:11 | 1.10271 | 126.35901 | 35842 ft | 470 kts | 339° |
| 2026-05-05 06:11 | 1.16363 | 126.33544 | 35844 ft | 469 kts | 339° |
| 2026-05-05 06:12 | 1.22460 | 126.31192 | 35839 ft | 469 kts | 339° |
| 2026-05-05 06:12 | 1.28548 | 126.28834 | 35846 ft | 469 kts | 339° |
| 2026-05-05 06:13 | 1.34637 | 126.26474 | 35847 ft | 469 kts | 339° |
| 2026-05-05 06:13 | 1.40733 | 126.24121 | 35843 ft | 469 kts | 339° |
| 2026-05-05 06:14 | 1.46825 | 126.21762 | 35840 ft | 469 kts | 339° |
| 2026-05-05 06:14 | 1.52906 | 126.19408 | 35842 ft | 469 kts | 339° |
| 2026-05-05 06:15 | 1.58989 | 126.17051 | 35836 ft | 469 kts | 339° |
| 2026-05-05 06:15 | 1.65038 | 126.14717 | 35839 ft | 469 kts | 339° |
| 2026-05-05 06:16 | 1.71114 | 126.12361 | 35841 ft | 469 kts | 339° |
| 2026-05-05 06:16 | 1.77198 | 126.10004 | 35838 ft | 469 kts | 339° |
| 2026-05-05 06:17 | 1.83277 | 126.07651 | 35840 ft | 469 kts | 339° |
| 2026-05-05 06:17 | 1.89353 | 126.05295 | 35846 ft | 468 kts | 339° |
| 2026-05-05 06:18 | 1.95435 | 126.02933 | 35845 ft | 468 kts | 339° |
| 2026-05-05 06:18 | 2.01518 | 126.00596 | 35845 ft | 468 kts | 341° |
| 2026-05-05 06:19 | 2.07689 | 125.98503 | 35844 ft | 468 kts | 343° |
| 2026-05-05 06:19 | 2.13908 | 125.96545 | 35845 ft | 469 kts | 343° |
| 2026-05-05 06:20 | 2.20116 | 125.94550 | 35847 ft | 468 kts | 342° |
| 2026-05-05 06:20 | 2.26301 | 125.92500 | 35855 ft | 468 kts | 342° |
| 2026-05-05 06:21 | 2.32474 | 125.90441 | 35855 ft | 468 kts | 342° |
| 2026-05-05 06:21 | 2.38654 | 125.88399 | 35847 ft | 467 kts | 342° |
| 2026-05-05 06:22 | 2.44829 | 125.86363 | 35846 ft | 467 kts | 342° |
| 2026-05-05 06:22 | 2.51001 | 125.84320 | 35854 ft | 467 kts | 342° |
| 2026-05-05 06:23 | 2.57163 | 125.82282 | 35841 ft | 466 kts | 342° |
| 2026-05-05 06:23 | 2.63324 | 125.80251 | 35843 ft | 466 kts | 342° |
| 2026-05-05 06:24 | 2.69475 | 125.78217 | 35841 ft | 466 kts | 342° |
| 2026-05-05 06:24 | 2.75587 | 125.76192 | 35840 ft | 466 kts | 342° |
| 2026-05-05 06:25 | 2.81740 | 125.74164 | 35848 ft | 466 kts | 342° |
| 2026-05-05 06:25 | 2.87892 | 125.72127 | 35856 ft | 466 kts | 342° |
| 2026-05-05 06:26 | 2.94041 | 125.70090 | 35842 ft | 466 kts | 342° |
| 2026-05-05 06:26 | 3.00200 | 125.68055 | 35855 ft | 466 kts | 342° |
| 2026-05-05 06:27 | 3.09440 | 125.65008 | 35839 ft | 466 kts | 342° |
| 2026-05-05 06:28 | 3.15589 | 125.62971 | 35841 ft | 465 kts | 342° |
| 2026-05-05 06:28 | 3.21733 | 125.60937 | 35853 ft | 465 kts | 342° |
| 2026-05-05 06:29 | 3.27827 | 125.58913 | 35842 ft | 464 kts | 342° |
| 2026-05-05 06:29 | 3.33957 | 125.56882 | 35853 ft | 464 kts | 342° |
| 2026-05-05 06:30 | 3.40086 | 125.54856 | 35844 ft | 464 kts | 342° |
| 2026-05-05 06:30 | 3.46212 | 125.52827 | 35846 ft | 464 kts | 342° |
| 2026-05-05 06:31 | 3.52338 | 125.50801 | 35842 ft | 464 kts | 342° |
| 2026-05-05 06:31 | 3.58462 | 125.48770 | 35835 ft | 463 kts | 342° |
| 2026-05-05 06:32 | 3.64588 | 125.46740 | 35837 ft | 463 kts | 342° |
| 2026-05-05 06:32 | 3.70709 | 125.44716 | 35839 ft | 463 kts | 342° |
| 2026-05-05 06:33 | 3.75797 | 125.43033 | 35836 ft | 463 kts | 342° |
| 2026-05-05 06:33 | 3.82943 | 125.40659 | 35829 ft | 463 kts | 342° |
| 2026-05-05 06:34 | 3.89063 | 125.38625 | 35835 ft | 463 kts | 342° |
| 2026-05-05 06:34 | 3.95183 | 125.36599 | 35829 ft | 463 kts | 342° |
| 2026-05-05 06:35 | 4.00270 | 125.34919 | 35835 ft | 463 kts | 342° |
| 2026-05-05 06:35 | 4.06359 | 125.32802 | 35836 ft | 463 kts | 340° |
| 2026-05-05 06:36 | 4.12419 | 125.30584 | 35838 ft | 463 kts | 340° |
| 2026-05-05 06:36 | 4.18485 | 125.28364 | 35844 ft | 463 kts | 340° |
| 2026-05-05 06:37 | 4.24514 | 125.26190 | 35840 ft | 464 kts | 340° |
| 2026-05-05 06:37 | 4.30595 | 125.24023 | 35845 ft | 464 kts | 340° |
| 2026-05-05 06:38 | 4.36679 | 125.21852 | 35839 ft | 464 kts | 340° |
| 2026-05-05 06:38 | 4.42806 | 125.19651 | 35840 ft | 465 kts | 340° |
| 2026-05-05 06:39 | 4.48844 | 125.17477 | 35846 ft | 464 kts | 340° |
| 2026-05-05 06:39 | 4.54925 | 125.15287 | 35849 ft | 464 kts | 340° |
| 2026-05-05 06:40 | 4.61015 | 125.13100 | 35840 ft | 465 kts | 340° |
| 2026-05-05 06:40 | 4.67105 | 125.10915 | 35851 ft | 465 kts | 340° |
| 2026-05-05 06:41 | 4.73196 | 125.08727 | 35853 ft | 465 kts | 341° |
| 2026-05-05 06:41 | 4.79277 | 125.06543 | 35844 ft | 465 kts | 341° |
| 2026-05-05 06:42 | 4.85370 | 125.04357 | 35842 ft | 465 kts | 341° |
| 2026-05-05 06:42 | 4.91456 | 125.02176 | 35851 ft | 464 kts | 341° |
| 2026-05-05 06:43 | 4.97536 | 124.99988 | 35841 ft | 464 kts | 341° |
| 2026-05-05 06:43 | 5.03612 | 124.97799 | 35848 ft | 463 kts | 340° |
| 2026-05-05 06:44 | 5.09679 | 124.95615 | 35842 ft | 463 kts | 341° |
| 2026-05-05 06:44 | 5.15746 | 124.93430 | 35837 ft | 463 kts | 340° |
| 2026-05-05 06:45 | 5.21766 | 124.91263 | 35845 ft | 463 kts | 341° |
| 2026-05-05 06:45 | 5.27830 | 124.89084 | 35841 ft | 463 kts | 341° |
| 2026-05-05 06:46 | 5.33889 | 124.86906 | 35838 ft | 463 kts | 341° |
| 2026-05-05 06:46 | 5.39953 | 124.84723 | 35838 ft | 463 kts | 341° |
| 2026-05-05 06:47 | 5.46016 | 124.82537 | 35838 ft | 463 kts | 340° |
| 2026-05-05 06:47 | 5.52086 | 124.80345 | 35847 ft | 463 kts | 340° |
| 2026-05-05 06:48 | 5.58150 | 124.78160 | 35842 ft | 464 kts | 341° |
| 2026-05-05 06:48 | 5.64230 | 124.75972 | 35851 ft | 464 kts | 341° |
| 2026-05-05 06:49 | 5.70305 | 124.73783 | 35857 ft | 464 kts | 341° |
| 2026-05-05 06:49 | 5.76386 | 124.71591 | 35854 ft | 464 kts | 341° |
| 2026-05-05 06:50 | 5.82464 | 124.69402 | 35862 ft | 464 kts | 341° |
| 2026-05-05 06:50 | 5.88547 | 124.67207 | 35860 ft | 464 kts | 340° |
| 2026-05-05 06:51 | 5.94629 | 124.65007 | 35873 ft | 464 kts | 341° |
| 2026-05-05 06:51 | 6.00666 | 124.62832 | 35872 ft | 464 kts | 341° |
| 2026-05-05 06:52 | 6.06741 | 124.60638 | 35875 ft | 464 kts | 341° |
| 2026-05-05 06:52 | 6.12817 | 124.58446 | 35882 ft | 464 kts | 340° |
| 2026-05-05 06:53 | 6.18897 | 124.56252 | 35871 ft | 464 kts | 340° |
| 2026-05-05 06:53 | 6.24983 | 124.54056 | 35879 ft | 464 kts | 340° |
| 2026-05-05 06:54 | 6.31060 | 124.51861 | 35878 ft | 464 kts | 340° |
| 2026-05-05 06:54 | 6.37132 | 124.49670 | 35860 ft | 464 kts | 340° |
| 2026-05-05 06:55 | 6.43213 | 124.47476 | 35869 ft | 464 kts | 340° |
| 2026-05-05 06:55 | 6.49294 | 124.45286 | 35858 ft | 464 kts | 340° |
| 2026-05-05 06:56 | 6.55364 | 124.43098 | 35850 ft | 464 kts | 340° |
| 2026-05-05 06:56 | 6.61395 | 124.40922 | 35844 ft | 464 kts | 340° |
| 2026-05-05 06:57 | 6.67471 | 124.38732 | 35845 ft | 464 kts | 340° |
| 2026-05-05 06:57 | 6.73552 | 124.36536 | 35839 ft | 464 kts | 340° |
| 2026-05-05 06:58 | 6.79637 | 124.34329 | 35842 ft | 464 kts | 340° |
| 2026-05-05 06:58 | 6.85714 | 124.32138 | 35839 ft | 464 kts | 340° |
| 2026-05-05 06:59 | 6.91790 | 124.29944 | 35835 ft | 464 kts | 340° |
| 2026-05-05 06:59 | 6.97862 | 124.27748 | 35826 ft | 464 kts | 340° |
| 2026-05-05 07:00 | 7.03941 | 124.25551 | 35823 ft | 464 kts | 340° |
| 2026-05-05 07:00 | 7.10026 | 124.23347 | 35838 ft | 464 kts | 340° |
| 2026-05-05 07:01 | 7.16059 | 124.21160 | 35836 ft | 464 kts | 340° |
| 2026-05-05 07:01 | 7.22024 | 124.18690 | 35835 ft | 463 kts | 335° |
| 2026-05-05 07:02 | 7.27832 | 124.15893 | 35829 ft | 463 kts | 334° |
| 2026-05-05 07:02 | 7.33629 | 124.13074 | 35829 ft | 462 kts | 335° |
| 2026-05-05 07:03 | 7.39468 | 124.10344 | 35839 ft | 462 kts | 335° |
| 2026-05-05 07:03 | 7.45318 | 124.07660 | 35844 ft | 462 kts | 335° |
| 2026-05-05 07:04 | 7.51162 | 124.04966 | 35850 ft | 462 kts | 335° |
| 2026-05-05 07:04 | 7.56995 | 124.02255 | 35857 ft | 462 kts | 335° |
| 2026-05-05 07:05 | 7.62824 | 123.99543 | 35857 ft | 461 kts | 335° |
| 2026-05-05 07:05 | 7.68658 | 123.96834 | 35859 ft | 461 kts | 335° |
| 2026-05-05 07:06 | 7.74483 | 123.94135 | 35861 ft | 461 kts | 335° |
| 2026-05-05 07:06 | 7.80265 | 123.91442 | 35854 ft | 461 kts | 335° |
| 2026-05-05 07:07 | 7.86084 | 123.88732 | 35857 ft | 460 kts | 335° |
| 2026-05-05 07:07 | 7.91903 | 123.86023 | 35846 ft | 460 kts | 335° |
| 2026-05-05 07:08 | 7.97723 | 123.83319 | 35857 ft | 461 kts | 335° |
| 2026-05-05 07:08 | 8.03545 | 123.80610 | 35851 ft | 461 kts | 335° |
| 2026-05-05 07:09 | 8.09366 | 123.77897 | 35846 ft | 461 kts | 335° |
| 2026-05-05 07:09 | 8.15192 | 123.75181 | 35858 ft | 461 kts | 335° |
| 2026-05-05 07:10 | 8.21020 | 123.72475 | 35856 ft | 461 kts | 335° |
| 2026-05-05 07:10 | 8.26847 | 123.69760 | 35857 ft | 461 kts | 335° |
| 2026-05-05 07:11 | 8.32665 | 123.67045 | 35858 ft | 461 kts | 335° |
| 2026-05-05 07:11 | 8.38448 | 123.64340 | 35858 ft | 461 kts | 335° |
| 2026-05-05 07:12 | 8.44271 | 123.61621 | 35855 ft | 461 kts | 335° |
| 2026-05-05 07:12 | 8.50093 | 123.58912 | 35854 ft | 461 kts | 335° |
| 2026-05-05 07:13 | 8.55912 | 123.56196 | 35845 ft | 461 kts | 335° |
| 2026-05-05 07:13 | 8.61727 | 123.53480 | 35839 ft | 461 kts | 335° |
| 2026-05-05 07:14 | 8.67553 | 123.50764 | 35836 ft | 461 kts | 334° |
| 2026-05-05 07:14 | 8.73371 | 123.48045 | 35831 ft | 461 kts | 334° |
| 2026-05-05 07:15 | 8.79195 | 123.45319 | 35835 ft | 461 kts | 334° |
| 2026-05-05 07:15 | 8.85024 | 123.42596 | 35825 ft | 461 kts | 335° |
| 2026-05-05 07:16 | 8.90856 | 123.39873 | 35824 ft | 462 kts | 334° |
| 2026-05-05 07:16 | 8.96688 | 123.37149 | 35829 ft | 462 kts | 334° |
| 2026-05-05 07:17 | 9.02517 | 123.34419 | 35839 ft | 462 kts | 334° |
| 2026-05-05 07:17 | 9.08348 | 123.31680 | 35847 ft | 462 kts | 334° |
| 2026-05-05 07:18 | 9.14140 | 123.28967 | 35850 ft | 461 kts | 334° |
| 2026-05-05 07:18 | 9.19964 | 123.26246 | 35854 ft | 461 kts | 334° |
| 2026-05-05 07:19 | 9.25793 | 123.23514 | 35856 ft | 461 kts | 334° |
| 2026-05-05 07:19 | 9.31611 | 123.20782 | 35847 ft | 461 kts | 334° |
| 2026-05-05 07:20 | 9.37439 | 123.18052 | 35847 ft | 461 kts | 334° |
| 2026-05-05 07:20 | 9.43270 | 123.15322 | 35845 ft | 462 kts | 334° |
| 2026-05-05 07:21 | 9.49106 | 123.12580 | 35844 ft | 462 kts | 334° |
| 2026-05-05 07:21 | 9.54951 | 123.09833 | 35833 ft | 463 kts | 334° |
| 2026-05-05 07:22 | 9.60800 | 123.07085 | 35831 ft | 463 kts | 334° |
| 2026-05-05 07:22 | 9.66650 | 123.04340 | 35835 ft | 463 kts | 334° |
| 2026-05-05 07:23 | 9.72461 | 123.01612 | 35840 ft | 463 kts | 334° |
| 2026-05-05 07:23 | 9.78302 | 122.98868 | 35833 ft | 463 kts | 334° |
| 2026-05-05 07:24 | 9.84137 | 122.96116 | 35839 ft | 462 kts | 334° |
| 2026-05-05 07:24 | 9.89971 | 122.93373 | 35848 ft | 462 kts | 334° |
| 2026-05-05 07:25 | 9.94826 | 122.91097 | 35846 ft | 462 kts | 334° |
| 2026-05-05 07:25 | 10.00657 | 122.88354 | 35844 ft | 462 kts | 334° |
| 2026-05-05 07:26 | 10.06484 | 122.85599 | 35841 ft | 462 kts | 334° |
| 2026-05-05 07:26 | 10.12308 | 122.82851 | 35835 ft | 461 kts | 334° |
| 2026-05-05 07:27 | 10.18128 | 122.80115 | 35838 ft | 461 kts | 334° |
| 2026-05-05 07:27 | 10.23947 | 122.77380 | 35836 ft | 461 kts | 334° |
| 2026-05-05 07:28 | 10.29760 | 122.74634 | 35828 ft | 461 kts | 334° |
| 2026-05-05 07:28 | 10.35569 | 122.71892 | 35835 ft | 460 kts | 334° |
| 2026-05-05 07:29 | 10.41377 | 122.69153 | 35830 ft | 460 kts | 334° |
| 2026-05-05 07:29 | 10.47189 | 122.66411 | 35829 ft | 460 kts | 334° |
| 2026-05-05 07:30 | 10.52998 | 122.63659 | 35823 ft | 461 kts | 334° |
| 2026-05-05 07:30 | 10.61682 | 122.59556 | 35826 ft | 461 kts | 334° |
| 2026-05-05 07:31 | 10.67500 | 122.56811 | 35832 ft | 461 kts | 334° |
| 2026-05-05 07:31 | 10.73317 | 122.54056 | 35834 ft | 462 kts | 334° |
| 2026-05-05 07:32 | 10.79142 | 122.51295 | 35838 ft | 462 kts | 334° |
| 2026-05-05 07:32 | 10.84692 | 122.48065 | 35840 ft | 459 kts | 320° |
| 2026-05-05 07:33 | 10.89392 | 122.43694 | 35837 ft | 458 kts | 316° |
| 2026-05-05 07:33 | 10.94064 | 122.39278 | 35850 ft | 458 kts | 316° |
| 2026-05-05 07:34 | 10.98749 | 122.34872 | 35859 ft | 459 kts | 316° |
| 2026-05-05 07:34 | 11.03429 | 122.30455 | 35856 ft | 459 kts | 316° |
| 2026-05-05 07:35 | 11.08104 | 122.26038 | 35869 ft | 459 kts | 316° |
| 2026-05-05 07:35 | 11.12781 | 122.21613 | 35877 ft | 459 kts | 316° |
| 2026-05-05 07:36 | 11.17455 | 122.17198 | 35877 ft | 458 kts | 316° |
| 2026-05-05 07:36 | 11.22122 | 122.12786 | 35881 ft | 457 kts | 316° |
| 2026-05-05 07:37 | 11.26775 | 122.08379 | 35868 ft | 457 kts | 315° |
| 2026-05-05 07:37 | 11.31390 | 122.04000 | 35859 ft | 456 kts | 316° |
| 2026-05-05 07:38 | 11.36035 | 121.99595 | 35861 ft | 456 kts | 316° |
| 2026-05-05 07:38 | 11.40677 | 121.95193 | 35857 ft | 456 kts | 315° |
| 2026-05-05 07:39 | 11.45311 | 121.90793 | 35852 ft | 455 kts | 315° |
| 2026-05-05 07:39 | 11.49948 | 121.86391 | 35852 ft | 455 kts | 315° |
| 2026-05-05 07:40 | 11.54582 | 121.81999 | 35850 ft | 455 kts | 315° |
| 2026-05-05 07:40 | 11.59212 | 121.77597 | 35847 ft | 454 kts | 315° |
| 2026-05-05 07:41 | 11.63834 | 121.73200 | 35853 ft | 454 kts | 315° |
| 2026-05-05 07:41 | 11.68460 | 121.68811 | 35850 ft | 454 kts | 315° |
| 2026-05-05 07:42 | 11.73082 | 121.64414 | 35849 ft | 454 kts | 315° |
| 2026-05-05 07:42 | 11.77664 | 121.60047 | 35856 ft | 454 kts | 315° |
| 2026-05-05 07:43 | 11.82283 | 121.55646 | 35858 ft | 454 kts | 315° |
| 2026-05-05 07:43 | 11.86895 | 121.51255 | 35856 ft | 453 kts | 315° |
| 2026-05-05 07:44 | 11.91509 | 121.46859 | 35858 ft | 453 kts | 315° |
| 2026-05-05 07:44 | 11.96112 | 121.42475 | 35856 ft | 452 kts | 315° |
| 2026-05-05 07:45 | 12.00715 | 121.38084 | 35855 ft | 452 kts | 315° |
| 2026-05-05 07:45 | 12.05306 | 121.33694 | 35855 ft | 452 kts | 315° |
| 2026-05-05 07:46 | 12.09870 | 121.29336 | 35859 ft | 452 kts | 315° |
| 2026-05-05 07:46 | 12.14465 | 121.24949 | 35859 ft | 452 kts | 315° |
| 2026-05-05 07:47 | 12.19057 | 121.20565 | 35860 ft | 452 kts | 315° |
| 2026-05-05 07:47 | 12.23648 | 121.16173 | 35855 ft | 452 kts | 315° |
| 2026-05-05 07:48 | 12.28238 | 121.11781 | 35859 ft | 451 kts | 315° |
| 2026-05-05 07:48 | 12.32817 | 121.07394 | 35853 ft | 451 kts | 315° |
| 2026-05-05 07:49 | 12.37641 | 121.03297 | 35860 ft | 453 kts | 327° |
| 2026-05-05 07:49 | 12.42992 | 120.99967 | 35855 ft | 453 kts | 327° |
| 2026-05-05 07:50 | 12.48389 | 120.96621 | 35852 ft | 453 kts | 327° |
| 2026-05-05 07:50 | 12.53781 | 120.93274 | 35856 ft | 453 kts | 327° |
| 2026-05-05 07:51 | 12.59164 | 120.89919 | 35859 ft | 453 kts | 327° |
| 2026-05-05 07:51 | 12.64539 | 120.86562 | 35854 ft | 453 kts | 327° |
| 2026-05-05 07:52 | 12.69914 | 120.83195 | 35856 ft | 453 kts | 327° |
| 2026-05-05 07:52 | 12.75296 | 120.79832 | 35857 ft | 453 kts | 327° |
| 2026-05-05 07:53 | 12.80680 | 120.76476 | 35865 ft | 453 kts | 327° |
| 2026-05-05 07:53 | 12.86058 | 120.73120 | 35866 ft | 453 kts | 327° |
| 2026-05-05 07:54 | 12.91433 | 120.69763 | 35871 ft | 453 kts | 327° |
| 2026-05-05 07:54 | 12.96812 | 120.66403 | 35867 ft | 452 kts | 327° |
| 2026-05-05 07:55 | 13.02182 | 120.63038 | 35871 ft | 452 kts | 327° |
| 2026-05-05 07:55 | 13.07552 | 120.59675 | 35866 ft | 452 kts | 327° |
| 2026-05-05 07:56 | 13.12916 | 120.56312 | 35864 ft | 452 kts | 327° |
| 2026-05-05 07:56 | 13.18285 | 120.52945 | 35861 ft | 452 kts | 327° |
| 2026-05-05 07:57 | 13.23649 | 120.49578 | 35865 ft | 452 kts | 327° |
| 2026-05-05 07:57 | 13.29018 | 120.46215 | 35862 ft | 452 kts | 327° |
| 2026-05-05 07:58 | 13.34349 | 120.42866 | 35861 ft | 452 kts | 327° |
| 2026-05-05 07:58 | 13.39705 | 120.39492 | 35858 ft | 452 kts | 327° |
| 2026-05-05 07:59 | 13.45071 | 120.36123 | 35853 ft | 452 kts | 327° |
| 2026-05-05 07:59 | 13.50434 | 120.32756 | 35857 ft | 452 kts | 327° |
| 2026-05-05 08:00 | 13.55798 | 120.29379 | 35858 ft | 452 kts | 327° |
| 2026-05-05 08:00 | 13.61151 | 120.26004 | 35859 ft | 452 kts | 327° |
| 2026-05-05 08:01 | 13.66515 | 120.22622 | 36226 ft | 452 kts | 327° |
| 2026-05-05 08:01 | 13.69200 | 120.20930 | 36561 ft | 451 kts | 327° |
| 2026-05-05 08:01 | 13.71875 | 120.19244 | 36886 ft | 450 kts | 327° |
| 2026-05-05 08:02 | 13.74542 | 120.17563 | 37208 ft | 449 kts | 327° |
| 2026-05-05 08:02 | 13.77200 | 120.15888 | 37530 ft | 448 kts | 327° |
| 2026-05-05 08:02 | 13.79856 | 120.14215 | 37798 ft | 448 kts | 327° |
| 2026-05-05 08:02 | 13.82517 | 120.12543 | 37846 ft | 447 kts | 327° |
| 2026-05-05 08:03 | 13.87333 | 120.08630 | 37833 ft | 443 kts | 311° |
| 2026-05-05 08:03 | 13.91551 | 120.03989 | 37836 ft | 444 kts | 312° |
| 2026-05-05 08:04 | 13.95790 | 119.99366 | 37839 ft | 444 kts | 312° |
| 2026-05-05 08:04 | 14.00027 | 119.94739 | 37841 ft | 444 kts | 312° |
| 2026-05-05 08:05 | 14.04267 | 119.90107 | 37854 ft | 445 kts | 312° |
| 2026-05-05 08:05 | 14.08511 | 119.85461 | 37855 ft | 445 kts | 312° |
| 2026-05-05 08:06 | 14.12755 | 119.80815 | 37851 ft | 445 kts | 312° |
| 2026-05-05 08:06 | 14.17002 | 119.76171 | 37857 ft | 445 kts | 311° |
| 2026-05-05 08:07 | 14.21208 | 119.71547 | 37859 ft | 445 kts | 311° |
| 2026-05-05 08:07 | 14.25443 | 119.66897 | 37864 ft | 445 kts | 311° |
| 2026-05-05 08:08 | 14.29681 | 119.62247 | 37863 ft | 445 kts | 311° |
| 2026-05-05 08:08 | 14.33916 | 119.57599 | 37854 ft | 445 kts | 311° |
| 2026-05-05 08:09 | 14.38144 | 119.52952 | 37859 ft | 444 kts | 311° |
| 2026-05-05 08:09 | 14.42374 | 119.48299 | 37864 ft | 444 kts | 311° |
| 2026-05-05 08:10 | 14.46601 | 119.43650 | 37865 ft | 444 kts | 311° |
| 2026-05-05 08:10 | 14.50817 | 119.39000 | 37856 ft | 444 kts | 311° |
| 2026-05-05 08:11 | 14.55011 | 119.34381 | 37860 ft | 443 kts | 311° |
| 2026-05-05 08:11 | 14.59223 | 119.29740 | 37860 ft | 443 kts | 311° |
| 2026-05-05 08:12 | 14.63430 | 119.25100 | 37859 ft | 442 kts | 311° |
| 2026-05-05 08:12 | 14.67636 | 119.20467 | 37857 ft | 442 kts | 311° |
| 2026-05-05 08:13 | 14.71835 | 119.15831 | 37862 ft | 441 kts | 311° |
| 2026-05-05 08:13 | 14.76027 | 119.11196 | 37862 ft | 441 kts | 311° |
| 2026-05-05 08:14 | 14.79502 | 119.07358 | 37864 ft | 440 kts | 311° |
| 2026-05-05 08:14 | 14.83683 | 119.02736 | 37864 ft | 440 kts | 311° |
| 2026-05-05 08:15 | 14.88534 | 118.97358 | 37869 ft | 439 kts | 311° |
| 2026-05-05 08:15 | 14.92729 | 118.92711 | 37877 ft | 439 kts | 311° |
| 2026-05-05 08:16 | 14.96193 | 118.88875 | 37867 ft | 439 kts | 311° |
| 2026-05-05 08:16 | 15.00358 | 118.84263 | 37877 ft | 438 kts | 311° |
| 2026-05-05 08:17 | 15.04507 | 118.79653 | 37874 ft | 438 kts | 311° |
| 2026-05-05 08:17 | 15.08658 | 118.75045 | 37873 ft | 437 kts | 311° |
| 2026-05-05 08:18 | 15.12801 | 118.70446 | 37876 ft | 437 kts | 311° |
| 2026-05-05 08:18 | 15.16912 | 118.65876 | 37876 ft | 436 kts | 311° |
| 2026-05-05 08:19 | 15.21047 | 118.61276 | 37875 ft | 436 kts | 311° |
| 2026-05-05 08:19 | 15.25169 | 118.56680 | 37873 ft | 436 kts | 311° |
| 2026-05-05 08:20 | 15.29301 | 118.52086 | 37877 ft | 435 kts | 311° |
| 2026-05-05 08:20 | 15.33425 | 118.47492 | 37888 ft | 435 kts | 311° |
| 2026-05-05 08:21 | 15.37545 | 118.42898 | 37886 ft | 435 kts | 311° |
| 2026-05-05 08:21 | 15.41661 | 118.38309 | 37888 ft | 434 kts | 311° |
| 2026-05-05 08:22 | 15.45772 | 118.33724 | 37882 ft | 434 kts | 311° |
| 2026-05-05 08:22 | 15.49875 | 118.29131 | 37882 ft | 434 kts | 311° |
| 2026-05-05 08:23 | 15.53974 | 118.24545 | 37883 ft | 434 kts | 311° |
| 2026-05-05 08:23 | 15.58077 | 118.19959 | 37882 ft | 433 kts | 311° |
| 2026-05-05 08:24 | 15.62151 | 118.15405 | 37887 ft | 433 kts | 311° |
| 2026-05-05 08:24 | 15.66239 | 118.10822 | 37887 ft | 433 kts | 311° |
| 2026-05-05 08:25 | 15.70327 | 118.06235 | 37890 ft | 432 kts | 311° |
| 2026-05-05 08:25 | 15.74409 | 118.01653 | 37889 ft | 432 kts | 311° |
| 2026-05-05 08:26 | 15.78489 | 117.97079 | 37890 ft | 432 kts | 311° |
| 2026-05-05 08:26 | 15.82575 | 117.92502 | 37888 ft | 432 kts | 311° |
| 2026-05-05 08:27 | 15.86646 | 117.87923 | 37889 ft | 431 kts | 310° |
| 2026-05-05 08:27 | 15.90712 | 117.83341 | 37893 ft | 431 kts | 311° |
| 2026-05-05 08:28 | 15.94784 | 117.78767 | 37888 ft | 431 kts | 311° |
| 2026-05-05 08:28 | 15.98803 | 117.74251 | 37888 ft | 431 kts | 311° |
| 2026-05-05 08:29 | 16.02867 | 117.69672 | 37891 ft | 431 kts | 311° |
| 2026-05-05 08:30 | 16.08898 | 117.62876 | 37889 ft | 430 kts | 310° |
| 2026-05-05 08:30 | 16.12920 | 117.58324 | 37890 ft | 430 kts | 311° |
| 2026-05-05 08:31 | 16.16977 | 117.53748 | 37889 ft | 430 kts | 311° |
| 2026-05-05 08:31 | 16.21036 | 117.49176 | 37886 ft | 430 kts | 311° |
| 2026-05-05 08:32 | 16.25091 | 117.44593 | 37889 ft | 430 kts | 310° |
| 2026-05-05 08:32 | 16.29138 | 117.40005 | 37887 ft | 430 kts | 310° |
| 2026-05-05 08:33 | 16.33181 | 117.35420 | 37887 ft | 430 kts | 311° |
| 2026-05-05 08:33 | 16.37235 | 117.30840 | 37885 ft | 430 kts | 311° |
| 2026-05-05 08:34 | 16.41286 | 117.26257 | 37892 ft | 430 kts | 310° |
| 2026-05-05 08:34 | 16.45401 | 117.21737 | 37891 ft | 431 kts | 317° |
| 2026-05-05 08:35 | 16.50441 | 117.18411 | 37891 ft | 435 kts | 330° |
| 2026-05-05 08:35 | 16.55841 | 117.15548 | 37887 ft | 435 kts | 330° |
| 2026-05-05 08:36 | 16.61234 | 117.12686 | 37889 ft | 435 kts | 330° |
| 2026-05-05 08:36 | 16.66628 | 117.09814 | 37889 ft | 435 kts | 330° |
| 2026-05-05 08:37 | 16.72021 | 117.06945 | 37891 ft | 435 kts | 330° |
| 2026-05-05 08:37 | 16.77409 | 117.04074 | 37895 ft | 435 kts | 330° |
| 2026-05-05 08:38 | 16.82794 | 117.01194 | 37893 ft | 435 kts | 330° |
| 2026-05-05 08:38 | 16.88175 | 116.98316 | 37894 ft | 434 kts | 330° |
| 2026-05-05 08:39 | 16.93556 | 116.95447 | 37891 ft | 434 kts | 330° |
| 2026-05-05 08:39 | 16.98901 | 116.92594 | 37892 ft | 434 kts | 330° |
| 2026-05-05 08:40 | 17.04276 | 116.89717 | 37896 ft | 434 kts | 329° |
| 2026-05-05 08:40 | 17.09644 | 116.86841 | 37894 ft | 433 kts | 329° |
| 2026-05-05 08:41 | 17.15004 | 116.83967 | 37897 ft | 433 kts | 329° |
| 2026-05-05 08:41 | 17.20368 | 116.81094 | 37897 ft | 433 kts | 329° |
| 2026-05-05 08:42 | 17.25722 | 116.78221 | 37898 ft | 432 kts | 329° |
| 2026-05-05 08:42 | 17.31074 | 116.75356 | 37904 ft | 432 kts | 329° |
| 2026-05-05 08:43 | 17.36422 | 116.72481 | 37896 ft | 432 kts | 329° |
| 2026-05-05 08:43 | 17.41760 | 116.69605 | 37898 ft | 431 kts | 329° |
| 2026-05-05 08:44 | 17.47107 | 116.66738 | 37899 ft | 431 kts | 329° |
| 2026-05-05 08:44 | 17.52445 | 116.63870 | 37899 ft | 431 kts | 329° |
| 2026-05-05 08:45 | 17.57779 | 116.60995 | 37901 ft | 431 kts | 329° |
| 2026-05-05 08:45 | 17.63073 | 116.58141 | 37900 ft | 431 kts | 329° |
| 2026-05-05 08:46 | 17.68406 | 116.55265 | 37910 ft | 431 kts | 329° |
| 2026-05-05 08:46 | 17.73738 | 116.52392 | 37899 ft | 431 kts | 329° |
| 2026-05-05 08:47 | 17.79065 | 116.49509 | 37906 ft | 431 kts | 329° |
| 2026-05-05 08:47 | 17.84394 | 116.46628 | 37896 ft | 431 kts | 329° |
| 2026-05-05 08:48 | 17.89726 | 116.43757 | 37910 ft | 431 kts | 329° |
| 2026-05-05 08:48 | 17.95057 | 116.40875 | 37906 ft | 431 kts | 329° |
| 2026-05-05 08:49 | 18.00380 | 116.37987 | 37912 ft | 431 kts | 329° |
| 2026-05-05 08:49 | 18.05713 | 116.35092 | 37907 ft | 431 kts | 329° |
| 2026-05-05 08:50 | 18.11042 | 116.32208 | 37901 ft | 431 kts | 329° |
| 2026-05-05 08:50 | 18.16339 | 116.29336 | 37900 ft | 431 kts | 329° |
| 2026-05-05 08:51 | 18.21675 | 116.26441 | 37911 ft | 432 kts | 329° |
| 2026-05-05 08:51 | 18.27012 | 116.23537 | 37908 ft | 432 kts | 329° |
| 2026-05-05 08:52 | 18.32348 | 116.20627 | 37901 ft | 432 kts | 329° |
| 2026-05-05 08:52 | 18.37692 | 116.17719 | 37903 ft | 432 kts | 329° |
| 2026-05-05 08:53 | 18.43037 | 116.14807 | 37909 ft | 433 kts | 329° |
| 2026-05-05 08:53 | 18.48388 | 116.11893 | 37914 ft | 433 kts | 329° |
| 2026-05-05 08:54 | 18.53743 | 116.08980 | 37916 ft | 433 kts | 329° |
| 2026-05-05 08:54 | 18.59089 | 116.06063 | 37914 ft | 433 kts | 329° |
| 2026-05-05 08:55 | 18.64443 | 116.03146 | 37918 ft | 433 kts | 329° |
| 2026-05-05 08:55 | 18.69799 | 116.00227 | 37914 ft | 433 kts | 329° |
| 2026-05-05 08:56 | 18.75149 | 115.97292 | 37923 ft | 433 kts | 329° |
| 2026-05-05 08:56 | 18.80497 | 115.94364 | 37920 ft | 433 kts | 329° |
| 2026-05-05 08:57 | 18.85817 | 115.91462 | 37919 ft | 433 kts | 329° |
| 2026-05-05 08:57 | 18.91159 | 115.88540 | 37743 ft | 432 kts | 329° |
| 2026-05-05 08:57 | 18.93830 | 115.87073 | 37620 ft | 431 kts | 329° |
| 2026-05-05 08:58 | 18.96580 | 115.85794 | 37488 ft | 435 kts | 338° |
| 2026-05-05 08:58 | 18.99540 | 115.85038 | 37356 ft | 441 kts | 348° |
| 2026-05-05 08:58 | 19.02620 | 115.84867 | 37238 ft | 447 kts | 359° |
| 2026-05-05 08:58 | 19.05734 | 115.85121 | 37104 ft | 449 kts | 0° |
| 2026-05-05 08:59 | 19.08854 | 115.85392 | 36922 ft | 450 kts | 0° |
| 2026-05-05 08:59 | 19.15103 | 115.85914 | 36906 ft | 451 kts | 0° |
| 2026-05-05 09:00 | 19.21358 | 115.86440 | 36911 ft | 451 kts | 0° |
| 2026-05-05 09:00 | 19.27621 | 115.86968 | 36911 ft | 451 kts | 0° |
| 2026-05-05 09:01 | 19.33883 | 115.87502 | 36909 ft | 451 kts | 0° |
| 2026-05-05 09:01 | 19.40116 | 115.88031 | 36919 ft | 452 kts | 0° |
| 2026-05-05 09:02 | 19.46385 | 115.88564 | 36920 ft | 452 kts | 0° |
| 2026-05-05 09:02 | 19.52659 | 115.89102 | 36925 ft | 452 kts | 0° |
| 2026-05-05 09:03 | 19.58932 | 115.89636 | 36928 ft | 452 kts | 0° |
| 2026-05-05 09:03 | 19.65209 | 115.90167 | 36931 ft | 452 kts | 0° |
| 2026-05-05 09:04 | 19.71477 | 115.90707 | 36941 ft | 452 kts | 0° |
| 2026-05-05 09:04 | 19.77746 | 115.91243 | 36941 ft | 452 kts | 0° |
| 2026-05-05 09:05 | 19.84009 | 115.91773 | 36939 ft | 452 kts | 0° |
| 2026-05-05 09:05 | 19.90275 | 115.92307 | 36946 ft | 451 kts | 0° |
| 2026-05-05 09:06 | 19.95477 | 115.92749 | 36952 ft | 451 kts | 0° |
| 2026-05-05 09:06 | 20.01731 | 115.93290 | 36951 ft | 451 kts | 0° |
| 2026-05-05 09:07 | 20.07978 | 115.93826 | 36954 ft | 450 kts | 360° |
| 2026-05-05 09:07 | 20.14223 | 115.94362 | 36950 ft | 450 kts | 360° |
| 2026-05-05 09:08 | 20.21463 | 115.94983 | 36954 ft | 449 kts | 360° |
| 2026-05-05 09:08 | 20.26685 | 115.95429 | 36960 ft | 449 kts | 360° |
| 2026-05-05 09:09 | 20.32912 | 115.95960 | 36955 ft | 449 kts | 360° |
| 2026-05-05 09:09 | 20.39140 | 115.96499 | 36955 ft | 449 kts | 360° |
| 2026-05-05 09:10 | 20.45326 | 115.97034 | 36958 ft | 449 kts | 359° |
| 2026-05-05 09:10 | 20.51549 | 115.97566 | 36960 ft | 449 kts | 359° |
| 2026-05-05 09:11 | 20.57772 | 115.98105 | 36966 ft | 449 kts | 360° |
| 2026-05-05 09:11 | 20.63998 | 115.98642 | 36971 ft | 449 kts | 359° |
| 2026-05-05 09:12 | 20.70224 | 115.99175 | 36959 ft | 449 kts | 359° |
| 2026-05-05 09:12 | 20.76448 | 115.99716 | 36965 ft | 449 kts | 359° |
| 2026-05-05 09:13 | 20.82680 | 116.00259 | 36964 ft | 449 kts | 359° |
| 2026-05-05 09:13 | 20.88913 | 116.00798 | 36964 ft | 449 kts | 359° |
| 2026-05-05 09:14 | 20.95111 | 116.01329 | 36969 ft | 449 kts | 359° |
| 2026-05-05 09:14 | 21.01341 | 116.01873 | 36967 ft | 449 kts | 359° |
| 2026-05-05 09:15 | 21.07570 | 116.02410 | 36971 ft | 449 kts | 359° |
| 2026-05-05 09:15 | 21.13803 | 116.02952 | 36977 ft | 449 kts | 359° |
| 2026-05-05 09:16 | 21.20037 | 116.03493 | 36976 ft | 449 kts | 359° |
| 2026-05-05 09:16 | 21.26266 | 116.04028 | 36979 ft | 449 kts | 359° |
| 2026-05-05 09:17 | 21.32498 | 116.04574 | 36982 ft | 449 kts | 359° |
| 2026-05-05 09:17 | 21.38731 | 116.05122 | 36983 ft | 449 kts | 358° |
| 2026-05-05 09:18 | 21.44960 | 116.05669 | 36985 ft | 449 kts | 358° |
| 2026-05-05 09:18 | 21.51194 | 116.06209 | 36988 ft | 449 kts | 358° |
| 2026-05-05 09:19 | 21.57441 | 116.06760 | 36992 ft | 450 kts | 358° |
| 2026-05-05 09:19 | 21.63675 | 116.07305 | 36990 ft | 450 kts | 358° |
| 2026-05-05 09:20 | 21.69915 | 116.07845 | 36991 ft | 450 kts | 358° |
| 2026-05-05 09:20 | 21.76115 | 116.08388 | 36994 ft | 450 kts | 358° |
| 2026-05-05 09:21 | 21.82357 | 116.08939 | 36997 ft | 450 kts | 358° |
| 2026-05-05 09:21 | 21.88604 | 116.09487 | 36996 ft | 450 kts | 358° |
| 2026-05-05 09:22 | 21.94854 | 116.10035 | 37003 ft | 450 kts | 358° |
| 2026-05-05 09:22 | 22.01100 | 116.10589 | 37001 ft | 451 kts | 358° |
| 2026-05-05 09:23 | 22.07348 | 116.11144 | 37004 ft | 451 kts | 358° |
| 2026-05-05 09:23 | 22.13602 | 116.11694 | 37007 ft | 451 kts | 358° |
| 2026-05-05 09:24 | 22.19854 | 116.12241 | 37009 ft | 451 kts | 358° |
| 2026-05-05 09:24 | 22.26114 | 116.12792 | 37010 ft | 451 kts | 358° |
| 2026-05-05 09:25 | 22.32335 | 116.13344 | 37012 ft | 451 kts | 358° |
| 2026-05-05 09:25 | 22.38597 | 116.13898 | 37014 ft | 452 kts | 357° |
| 2026-05-05 09:26 | 22.44861 | 116.14449 | 37018 ft | 452 kts | 357° |
| 2026-05-05 09:26 | 22.51128 | 116.15003 | 37020 ft | 452 kts | 357° |
| 2026-05-05 09:27 | 22.57401 | 116.15556 | 37026 ft | 453 kts | 357° |
| 2026-05-05 09:27 | 22.63670 | 116.16107 | 37024 ft | 452 kts | 357° |
| 2026-05-05 09:28 | 22.69938 | 116.17024 | 37021 ft | 463 kts | 9° |
| 2026-05-05 09:28 | 22.72976 | 116.18265 | 37018 ft | 473 kts | 20° |
| 2026-05-05 09:28 | 22.75824 | 116.20117 | 37019 ft | 483 kts | 30° |
| 2026-05-05 09:29 | 22.81176 | 116.24557 | 37018 ft | 485 kts | 31° |
| 2026-05-05 09:29 | 22.86530 | 116.29022 | 37019 ft | 486 kts | 31° |
| 2026-05-05 09:30 | 22.91903 | 116.33485 | 37021 ft | 487 kts | 31° |
| 2026-05-05 09:30 | 22.97282 | 116.37946 | 37024 ft | 487 kts | 31° |
| 2026-05-05 09:31 | 23.02690 | 116.42411 | 36680 ft | 488 kts | 31° |
| 2026-05-05 09:31 | 23.05397 | 116.44644 | 36439 ft | 489 kts | 31° |
| 2026-05-05 09:31 | 23.08108 | 116.46882 | 35818 ft | 492 kts | 31° |
| 2026-05-05 09:31 | 23.10857 | 116.49150 | 34985 ft | 499 kts | 31° |
| 2026-05-05 09:32 | 23.13597 | 116.51413 | 34384 ft | 501 kts | 31° |
| 2026-05-05 09:32 | 23.16368 | 116.53710 | 33795 ft | 501 kts | 31° |
| 2026-05-05 09:32 | 23.19141 | 116.56012 | 33211 ft | 500 kts | 31° |
| 2026-05-05 09:32 | 23.21890 | 116.58297 | 32630 ft | 497 kts | 31° |
| 2026-05-05 09:33 | 23.24637 | 116.60580 | 32053 ft | 495 kts | 31° |
| 2026-05-05 09:33 | 23.27374 | 116.62854 | 31471 ft | 495 kts | 31° |
| 2026-05-05 09:33 | 23.30116 | 116.65130 | 30924 ft | 494 kts | 31° |
| 2026-05-05 09:33 | 23.32811 | 116.67370 | 30323 ft | 484 kts | 31° |
| 2026-05-05 09:34 | 23.35450 | 116.69566 | 29706 ft | 471 kts | 31° |
| 2026-05-05 09:34 | 23.38034 | 116.71718 | 29167 ft | 463 kts | 31° |
| 2026-05-05 09:34 | 23.40574 | 116.73833 | 28653 ft | 455 kts | 31° |
| 2026-05-05 09:34 | 23.43070 | 116.75910 | 28143 ft | 450 kts | 32° |
| 2026-05-05 09:35 | 23.45382 | 116.78221 | 27711 ft | 453 kts | 40° |
| 2026-05-05 09:35 | 23.49727 | 116.83147 | 26830 ft | 449 kts | 41° |
| 2026-05-05 09:35 | 23.51877 | 116.85592 | 26409 ft | 447 kts | 41° |
| 2026-05-05 09:36 | 23.53996 | 116.88003 | 25992 ft | 445 kts | 41° |
| 2026-05-05 09:36 | 23.56134 | 116.90432 | 25553 ft | 443 kts | 41° |
| 2026-05-05 09:36 | 23.58267 | 116.92854 | 25125 ft | 442 kts | 41° |
| 2026-05-05 09:36 | 23.60397 | 116.95272 | 24686 ft | 442 kts | 41° |
| 2026-05-05 09:37 | 23.62523 | 116.97686 | 24245 ft | 441 kts | 41° |
| 2026-05-05 09:37 | 23.64647 | 117.00098 | 23794 ft | 441 kts | 41° |
| 2026-05-05 09:37 | 23.66770 | 117.02514 | 23291 ft | 441 kts | 41° |
| 2026-05-05 09:37 | 23.68882 | 117.04920 | 22819 ft | 438 kts | 42° |
| 2026-05-05 09:38 | 23.70982 | 117.07317 | 22343 ft | 432 kts | 42° |
| 2026-05-05 09:38 | 23.73038 | 117.09667 | 21871 ft | 424 kts | 42° |
| 2026-05-05 09:38 | 23.75051 | 117.11968 | 21422 ft | 416 kts | 42° |
| 2026-05-05 09:38 | 23.77043 | 117.14215 | 20971 ft | 408 kts | 41° |
| 2026-05-05 09:39 | 23.79074 | 117.16333 | 20520 ft | 402 kts | 38° |
| 2026-05-05 09:39 | 23.81153 | 117.18363 | 20077 ft | 401 kts | 37° |
| 2026-05-05 09:39 | 23.83262 | 117.20354 | 19626 ft | 400 kts | 37° |
| 2026-05-05 09:39 | 23.85370 | 117.22331 | 19179 ft | 400 kts | 37° |
| 2026-05-05 09:40 | 23.87477 | 117.24326 | 18728 ft | 400 kts | 39° |
| 2026-05-05 09:40 | 23.89562 | 117.26327 | 18272 ft | 399 kts | 39° |
| 2026-05-05 09:40 | 23.91633 | 117.28341 | 17780 ft | 399 kts | 39° |
| 2026-05-05 09:40 | 23.93693 | 117.30364 | 17329 ft | 397 kts | 39° |
| 2026-05-05 09:41 | 23.95713 | 117.32354 | 16886 ft | 395 kts | 39° |
| 2026-05-05 09:41 | 23.97737 | 117.34351 | 16432 ft | 388 kts | 39° |
| 2026-05-05 09:41 | 23.99722 | 117.36305 | 16000 ft | 380 kts | 39° |
| 2026-05-05 09:41 | 24.01675 | 117.38223 | 15561 ft | 374 kts | 39° |
| 2026-05-05 09:42 | 24.03614 | 117.40120 | 15132 ft | 374 kts | 39° |
| 2026-05-05 09:42 | 24.05554 | 117.42015 | 14693 ft | 374 kts | 39° |
| 2026-05-05 09:42 | 24.07494 | 117.43912 | 14256 ft | 374 kts | 39° |
| 2026-05-05 09:42 | 24.09434 | 117.45815 | 13810 ft | 375 kts | 39° |
| 2026-05-05 09:43 | 24.11365 | 117.47714 | 13333 ft | 368 kts | 39° |
| 2026-05-05 09:43 | 24.13247 | 117.49564 | 12911 ft | 361 kts | 39° |
| 2026-05-05 09:43 | 24.14984 | 117.51523 | 12481 ft | 356 kts | 45° |
| 2026-05-05 09:43 | 24.16636 | 117.53515 | 12062 ft | 352 kts | 45° |
| 2026-05-05 09:44 | 24.18293 | 117.55498 | 11634 ft | 353 kts | 45° |
| 2026-05-05 09:44 | 24.19954 | 117.57478 | 11197 ft | 354 kts | 45° |
| 2026-05-05 09:44 | 24.21617 | 117.59460 | 10763 ft | 354 kts | 45° |
| 2026-05-05 09:44 | 24.23278 | 117.61444 | 10326 ft | 350 kts | 45° |
| 2026-05-05 09:45 | 24.24903 | 117.63392 | 10058 ft | 339 kts | 45° |
| 2026-05-05 09:45 | 24.26454 | 117.65258 | 9856 ft | 324 kts | 45° |
| 2026-05-05 09:45 | 24.27952 | 117.67057 | 9350 ft | 316 kts | 45° |
| 2026-05-05 09:45 | 24.29429 | 117.68828 | 8818 ft | 312 kts | 45° |
| 2026-05-05 09:46 | 24.30866 | 117.70556 | 8421 ft | 301 kts | 45° |
| 2026-05-05 09:46 | 24.32261 | 117.72234 | 8058 ft | 293 kts | 45° |
| 2026-05-05 09:46 | 24.33613 | 117.73856 | 7722 ft | 283 kts | 45° |
| 2026-05-05 09:46 | 24.34904 | 117.75403 | 7433 ft | 273 kts | 45° |
| 2026-05-05 09:47 | 24.36164 | 117.76913 | 7148 ft | 264 kts | 45° |
| 2026-05-05 09:47 | 24.37377 | 117.78369 | 6892 ft | 253 kts | 45° |
| 2026-05-05 09:47 | 24.38544 | 117.79776 | 6642 ft | 247 kts | 46° |
| 2026-05-05 09:47 | 24.39477 | 117.81350 | 6378 ft | 245 kts | 66° |
| 2026-05-05 09:48 | 24.39918 | 117.83131 | 6113 ft | 240 kts | 84° |
| 2026-05-05 09:48 | 24.40046 | 117.84932 | 5833 ft | 233 kts | 85° |
| 2026-05-05 09:48 | 24.40173 | 117.86681 | 5559 ft | 226 kts | 85° |
| 2026-05-05 09:48 | 24.40297 | 117.88354 | 5287 ft | 217 kts | 85° |
| 2026-05-05 09:49 | 24.40420 | 117.89986 | 5013 ft | 212 kts | 85° |
| 2026-05-05 09:49 | 24.40539 | 117.91580 | 4754 ft | 207 kts | 85° |
| 2026-05-05 09:49 | 24.40713 | 117.93130 | 4476 ft | 202 kts | 73° |
| 2026-05-05 09:49 | 24.41318 | 117.94487 | 4202 ft | 196 kts | 51° |
| 2026-05-05 09:50 | 24.42170 | 117.95674 | 3750 ft | 199 kts | 52° |
| 2026-05-05 09:50 | 24.43004 | 117.96833 | 3400 ft | 188 kts | 52° |
| 2026-05-05 09:50 | 24.43772 | 117.97903 | 3125 ft | 173 kts | 52° |
| 2026-05-05 09:50 | 24.44480 | 117.98890 | 2900 ft | 157 kts | 52° |
| 2026-05-05 09:51 | 24.45132 | 117.99799 | 2700 ft | 146 kts | 52° |
| 2026-05-05 09:51 | 24.45740 | 118.00648 | 2509 ft | 139 kts | 51° |
| 2026-05-05 09:51 | 24.46333 | 118.01475 | 2338 ft | 136 kts | 52° |
| 2026-05-05 09:51 | 24.46914 | 118.02286 | 2151 ft | 135 kts | 52° |
| 2026-05-05 09:52 | 24.47494 | 118.03095 | 1988 ft | 133 kts | 52° |
| 2026-05-05 09:52 | 24.48065 | 118.03893 | 1812 ft | 132 kts | 51° |
| 2026-05-05 09:52 | 24.48632 | 118.04684 | 1627 ft | 132 kts | 51° |
| 2026-05-05 09:52 | 24.49198 | 118.05474 | 1445 ft | 131 kts | 51° |
| 2026-05-05 09:53 | 24.49762 | 118.06261 | 1277 ft | 131 kts | 51° |
| 2026-05-05 09:53 | 24.50324 | 118.07047 | 1089 ft | 131 kts | 52° |
| 2026-05-05 09:53 | 24.50891 | 118.07839 | 930 ft | 132 kts | 53° |
| 2026-05-05 09:53 | 24.51466 | 118.08642 | 764 ft | 135 kts | 53° |
| 2026-05-05 09:54 | 24.52046 | 118.09454 | 588 ft | 136 kts | 53° |
| 2026-05-05 09:54 | 24.52629 | 118.10269 | 406 ft | 135 kts | 54° |
| 2026-05-05 09:54 | 24.53208 | 118.11082 | 220 ft | 135 kts | 53° |
| 2026-05-05 09:54 | 24.53774 | 118.11880 | 54 ft | 130 kts | 53° |
| 2026-05-05 09:55 | 24.54238 | 118.12525 | 52 ft | 83 kts | 51° |
| 2026-05-05 09:55 | 24.54493 | 118.12880 | 50 ft | 41 kts | 52° |
| 2026-05-05 09:55 | 24.54657 | 118.13121 | 52 ft | 38 kts | 61° |
| 2026-05-05 09:55 | 24.54712 | 118.13325 | 58 ft | 17 kts | 80° |
| 2026-05-05 09:56 | 24.54650 | 118.13387 | 54 ft | 16 kts | 211° |
| 2026-05-05 09:56 | 24.54576 | 118.13288 | 50 ft | 18 kts | 230° |
| 2026-05-05 09:56 | 24.54492 | 118.13170 | 51 ft | 21 kts | 232° |
| 2026-05-05 09:56 | 24.54397 | 118.13037 | 48 ft | 21 kts | 232° |
| 2026-05-05 09:57 | 24.54309 | 118.12914 | 51 ft | 20 kts | 232° |
| 2026-05-05 09:57 | 24.54231 | 118.12807 | 56 ft | 15 kts | 225° |
| 2026-05-05 09:57 | 24.54149 | 118.12827 | 52 ft | 11 kts | 140° |
| 2026-05-05 09:57 | 24.54083 | 118.12850 | 51 ft | 12 kts | 210° |
| 2026-05-05 09:58 | 24.54047 | 118.12802 | 51 ft | 13 kts | 233° |
| 2026-05-05 09:58 | 24.54015 | 118.12758 | 56 ft | 4 kts | 231° |
| 2026-05-05 09:58 | 24.54003 | 118.12742 | 49 ft | 3 kts | 229° |
| 2026-05-05 09:58 | 24.53975 | 118.12737 | 51 ft | 5 kts | 165° |
| 2026-05-05 09:59 | 24.53947 | 118.12758 | 54 ft | 3 kts | 141° |
| 2026-05-05 09:59 | 24.53930 | 118.12772 | 55 ft | 2 kts | 141° |
| 2026-05-05 09:59 | 24.53926 | 118.12776 | 53 ft | 0 kts | 141° |